sensor_id;sensor_type;location;lat;lon;timestamp;temperature;humidity
46231;DHT22;31949;51.404;-0.038;2024-02-21T00:00:31;10.40;99.90
46231;DHT22;31949;51.404;-0.038;2024-02-21T00:02:59;10.30;99.90
46231;DHT22;31949;51.404;-0.038;2024-02-21T00:05:29;10.20;99.90
46231;DHT22;31949;51.404;-0.038;2024-02-21T00:07:58;10.30;99.90
46231;DHT22;31949;51.404;-0.038;2024-02-21T00:10:26;10.30;99.90
46231;DHT22;31949;51.404;-0.038;2024-02-21T00:12:53;10.30;99.90
46231;DHT22;31949;51.404;-0.038;2024-02-21T00:15:21;10.30;99.90
46231;DHT22;31949;51.404;-0.038;2024-02-21T00:17:48;10.30;99.90
46231;DHT22;31949;51.404;-0.038;2024-02-21T00:20:16;10.30;99.90
46231;DHT22;31949;51.404;-0.038;2024-02-21T00:22:43;10.30;99.90
46231;DHT22;31949;51.404;-0.038;2024-02-21T00:25:11;10.40;99.90
46231;DHT22;31949;51.404;-0.038;2024-02-21T00:27:38;10.30;99.90
46231;DHT22;31949;51.404;-0.038;2024-02-21T00:30:06;10.30;99.90
46231;DHT22;31949;51.404;-0.038;2024-02-21T00:32:33;10.30;99.90
46231;DHT22;31949;51.404;-0.038;2024-02-21T00:35:01;10.30;99.90
46231;DHT22;31949;51.404;-0.038;2024-02-21T00:37:29;10.30;99.90
46231;DHT22;31949;51.404;-0.038;2024-02-21T00:39:56;10.40;99.90
46231;DHT22;31949;51.404;-0.038;2024-02-21T00:42:23;10.40;99.90
46231;DHT22;31949;51.404;-0.038;2024-02-21T00:44:50;10.40;99.90
46231;DHT22;31949;51.404;-0.038;2024-02-21T00:47:17;10.30;99.90
46231;DHT22;31949;51.404;-0.038;2024-02-21T00:49:45;10.40;99.90
46231;DHT22;31949;51.404;-0.038;2024-02-21T00:52:12;10.40;99.90
46231;DHT22;31949;51.404;-0.038;2024-02-21T00:54:39;10.30;99.90
46231;DHT22;31949;51.404;-0.038;2024-02-21T00:57:19;10.30;99.90
46231;DHT22;31949;51.404;-0.038;2024-02-21T00:59:47;10.30;99.90
46231;DHT22;31949;51.404;-0.038;2024-02-21T01:02:14;10.30;99.90
46231;DHT22;31949;51.404;-0.038;2024-02-21T01:04:42;10.40;99.90
46231;DHT22;31949;51.404;-0.038;2024-02-21T01:07:09;10.30;99.90
46231;DHT22;31949;51.404;-0.038;2024-02-21T01:09:36;10.40;99.90
46231;DHT22;31949;51.404;-0.038;2024-02-21T01:12:04;10.30;99.90
46231;DHT22;31949;51.404;-0.038;2024-02-21T01:14:31;10.30;99.90
46231;DHT22;31949;51.404;-0.038;2024-02-21T01:16:58;10.20;99.90
46231;DHT22;31949;51.404;-0.038;2024-02-21T01:19:26;10.20;99.90
46231;DHT22;31949;51.404;-0.038;2024-02-21T01:21:54;10.20;99.90
46231;DHT22;31949;51.404;-0.038;2024-02-21T01:24:21;10.20;99.90
46231;DHT22;31949;51.404;-0.038;2024-02-21T01:26:49;10.20;99.90
46231;DHT22;31949;51.404;-0.038;2024-02-21T01:29:16;10.20;99.90
46231;DHT22;31949;51.404;-0.038;2024-02-21T01:31:43;10.20;99.90
46231;DHT22;31949;51.404;-0.038;2024-02-21T01:34:11;10.10;99.90
46231;DHT22;31949;51.404;-0.038;2024-02-21T01:36:38;10.10;99.90
46231;DHT22;31949;51.404;-0.038;2024-02-21T01:39:05;10.20;99.90
46231;DHT22;31949;51.404;-0.038;2024-02-21T01:41:32;10.20;99.90
46231;DHT22;31949;51.404;-0.038;2024-02-21T01:44:00;10.20;99.90
46231;DHT22;31949;51.404;-0.038;2024-02-21T01:46:27;10.20;99.90
46231;DHT22;31949;51.404;-0.038;2024-02-21T01:48:57;10.20;99.90
46231;DHT22;31949;51.404;-0.038;2024-02-21T01:51:25;10.30;99.90
46231;DHT22;31949;51.404;-0.038;2024-02-21T01:53:53;10.30;99.90
46231;DHT22;31949;51.404;-0.038;2024-02-21T01:56:22;10.10;99.90
46231;DHT22;31949;51.404;-0.038;2024-02-21T01:58:51;10.10;99.90
46231;DHT22;31949;51.404;-0.038;2024-02-21T02:01:18;10.10;99.90
46231;DHT22;31949;51.404;-0.038;2024-02-21T02:03:48;10.10;99.90
46231;DHT22;31949;51.404;-0.038;2024-02-21T02:06:16;10.10;99.90
46231;DHT22;31949;51.404;-0.038;2024-02-21T02:08:44;10.10;99.90
46231;DHT22;31949;51.404;-0.038;2024-02-21T02:11:13;10.10;99.90
46231;DHT22;31949;51.404;-0.038;2024-02-21T02:13:41;10.20;99.90
46231;DHT22;31949;51.404;-0.038;2024-02-21T02:16:08;10.30;99.90
46231;DHT22;31949;51.404;-0.038;2024-02-21T02:18:36;10.30;99.90
46231;DHT22;31949;51.404;-0.038;2024-02-21T02:21:10;10.30;99.90
46231;DHT22;31949;51.404;-0.038;2024-02-21T02:23:41;10.20;99.90
46231;DHT22;31949;51.404;-0.038;2024-02-21T02:26:09;10.20;99.90
46231;DHT22;31949;51.404;-0.038;2024-02-21T02:28:36;10.10;99.90
46231;DHT22;31949;51.404;-0.038;2024-02-21T02:31:03;10.10;99.90
46231;DHT22;31949;51.404;-0.038;2024-02-21T02:33:30;10.20;99.90
46231;DHT22;31949;51.404;-0.038;2024-02-21T02:35:58;10.20;99.90
46231;DHT22;31949;51.404;-0.038;2024-02-21T02:38:26;10.10;99.90
46231;DHT22;31949;51.404;-0.038;2024-02-21T02:40:53;10.20;99.90
46231;DHT22;31949;51.404;-0.038;2024-02-21T02:43:20;10.30;99.90
46231;DHT22;31949;51.404;-0.038;2024-02-21T02:45:47;10.20;99.90
46231;DHT22;31949;51.404;-0.038;2024-02-21T02:48:15;10.30;99.90
46231;DHT22;31949;51.404;-0.038;2024-02-21T02:50:43;10.30;99.90
46231;DHT22;31949;51.404;-0.038;2024-02-21T02:53:10;10.30;99.90
46231;DHT22;31949;51.404;-0.038;2024-02-21T02:55:37;10.30;99.90
46231;DHT22;31949;51.404;-0.038;2024-02-21T02:58:04;10.20;99.90
46231;DHT22;31949;51.404;-0.038;2024-02-21T03:00:32;10.20;99.90
46231;DHT22;31949;51.404;-0.038;2024-02-21T03:03:03;10.30;99.90
46231;DHT22;31949;51.404;-0.038;2024-02-21T03:05:35;10.30;99.90
46231;DHT22;31949;51.404;-0.038;2024-02-21T03:08:02;10.30;99.90
46231;DHT22;31949;51.404;-0.038;2024-02-21T03:10:34;10.20;99.90
46231;DHT22;31949;51.404;-0.038;2024-02-21T03:13:01;10.10;99.90
46231;DHT22;31949;51.404;-0.038;2024-02-21T03:15:28;10.20;99.90
46231;DHT22;31949;51.404;-0.038;2024-02-21T03:17:56;10.20;99.90
46231;DHT22;31949;51.404;-0.038;2024-02-21T03:20:23;10.20;99.90
46231;DHT22;31949;51.404;-0.038;2024-02-21T03:22:50;10.20;99.90
46231;DHT22;31949;51.404;-0.038;2024-02-21T03:25:18;10.10;99.90
46231;DHT22;31949;51.404;-0.038;2024-02-21T03:27:46;10.20;99.90
46231;DHT22;31949;51.404;-0.038;2024-02-21T03:30:14;10.20;99.90
46231;DHT22;31949;51.404;-0.038;2024-02-21T03:32:41;10.30;99.90
46231;DHT22;31949;51.404;-0.038;2024-02-21T03:35:09;10.20;99.90
46231;DHT22;31949;51.404;-0.038;2024-02-21T03:37:36;10.20;99.90
46231;DHT22;31949;51.404;-0.038;2024-02-21T03:40:08;10.10;99.90
46231;DHT22;31949;51.404;-0.038;2024-02-21T03:42:35;10.20;99.90
46231;DHT22;31949;51.404;-0.038;2024-02-21T03:45:03;10.10;99.90
46231;DHT22;31949;51.404;-0.038;2024-02-21T03:47:30;10.00;99.90
46231;DHT22;31949;51.404;-0.038;2024-02-21T03:49:57;10.10;99.90
46231;DHT22;31949;51.404;-0.038;2024-02-21T03:52:27;10.10;99.90
46231;DHT22;31949;51.404;-0.038;2024-02-21T03:54:54;10.10;99.90
46231;DHT22;31949;51.404;-0.038;2024-02-21T03:57:22;10.10;99.90
46231;DHT22;31949;51.404;-0.038;2024-02-21T03:59:52;10.10;99.90
46231;DHT22;31949;51.404;-0.038;2024-02-21T04:02:19;10.10;99.90
46231;DHT22;31949;51.404;-0.038;2024-02-21T04:04:47;10.10;99.90
46231;DHT22;31949;51.404;-0.038;2024-02-21T04:07:15;10.20;99.90
46231;DHT22;31949;51.404;-0.038;2024-02-21T04:09:42;10.10;99.90
46231;DHT22;31949;51.404;-0.038;2024-02-21T04:12:09;10.10;99.90
46231;DHT22;31949;51.404;-0.038;2024-02-21T04:14:37;10.20;99.90
46231;DHT22;31949;51.404;-0.038;2024-02-21T04:17:04;10.20;99.90
46231;DHT22;31949;51.404;-0.038;2024-02-21T04:19:32;10.10;99.90
46231;DHT22;31949;51.404;-0.038;2024-02-21T04:22:01;10.00;99.90
46231;DHT22;31949;51.404;-0.038;2024-02-21T04:24:28;10.00;99.90
46231;DHT22;31949;51.404;-0.038;2024-02-21T04:26:55;10.00;99.90
46231;DHT22;31949;51.404;-0.038;2024-02-21T04:29:22;10.00;99.90
46231;DHT22;31949;51.404;-0.038;2024-02-21T04:31:50;10.10;99.90
46231;DHT22;31949;51.404;-0.038;2024-02-21T04:34:17;10.00;99.90
46231;DHT22;31949;51.404;-0.038;2024-02-21T04:36:45;10.00;99.90
46231;DHT22;31949;51.404;-0.038;2024-02-21T04:39:12;10.00;99.90
46231;DHT22;31949;51.404;-0.038;2024-02-21T04:41:39;9.90;99.90
46231;DHT22;31949;51.404;-0.038;2024-02-21T04:44:06;9.90;99.90
46231;DHT22;31949;51.404;-0.038;2024-02-21T04:46:34;10.00;99.90
46231;DHT22;31949;51.404;-0.038;2024-02-21T04:49:01;9.90;99.90
46231;DHT22;31949;51.404;-0.038;2024-02-21T04:51:28;10.00;99.90
46231;DHT22;31949;51.404;-0.038;2024-02-21T04:53:55;10.00;99.90
46231;DHT22;31949;51.404;-0.038;2024-02-21T04:56:22;10.00;99.90
46231;DHT22;31949;51.404;-0.038;2024-02-21T04:58:50;9.90;99.90
46231;DHT22;31949;51.404;-0.038;2024-02-21T05:01:17;10.00;99.90
46231;DHT22;31949;51.404;-0.038;2024-02-21T05:03:44;9.90;99.90
46231;DHT22;31949;51.404;-0.038;2024-02-21T05:06:11;10.00;99.90
46231;DHT22;31949;51.404;-0.038;2024-02-21T05:08:40;9.90;99.90
46231;DHT22;31949;51.404;-0.038;2024-02-21T05:11:07;9.90;99.90
46231;DHT22;31949;51.404;-0.038;2024-02-21T05:13:35;9.90;99.90
46231;DHT22;31949;51.404;-0.038;2024-02-21T05:16:02;9.90;99.90
46231;DHT22;31949;51.404;-0.038;2024-02-21T05:18:29;9.90;99.90
46231;DHT22;31949;51.404;-0.038;2024-02-21T05:20:57;9.80;99.90
46231;DHT22;31949;51.404;-0.038;2024-02-21T05:23:24;9.80;99.90
46231;DHT22;31949;51.404;-0.038;2024-02-21T05:25:51;9.80;99.90
46231;DHT22;31949;51.404;-0.038;2024-02-21T05:28:18;9.80;99.90
46231;DHT22;31949;51.404;-0.038;2024-02-21T05:30:46;9.80;99.90
46231;DHT22;31949;51.404;-0.038;2024-02-21T05:33:13;9.90;99.90
46231;DHT22;31949;51.404;-0.038;2024-02-21T05:35:48;10.00;99.90
46231;DHT22;31949;51.404;-0.038;2024-02-21T05:38:17;9.90;99.90
46231;DHT22;31949;51.404;-0.038;2024-02-21T05:40:45;10.00;99.90
46231;DHT22;31949;51.404;-0.038;2024-02-21T05:43:14;9.90;99.90
46231;DHT22;31949;51.404;-0.038;2024-02-21T05:45:41;9.90;99.90
46231;DHT22;31949;51.404;-0.038;2024-02-21T05:48:08;9.90;99.90
46231;DHT22;31949;51.404;-0.038;2024-02-21T05:50:35;9.90;99.90
46231;DHT22;31949;51.404;-0.038;2024-02-21T05:53:03;9.80;99.90
46231;DHT22;31949;51.404;-0.038;2024-02-21T05:55:30;9.80;99.90
46231;DHT22;31949;51.404;-0.038;2024-02-21T05:57:58;9.80;99.90
46231;DHT22;31949;51.404;-0.038;2024-02-21T06:00:25;9.80;99.90
46231;DHT22;31949;51.404;-0.038;2024-02-21T06:02:52;9.70;99.90
46231;DHT22;31949;51.404;-0.038;2024-02-21T06:05:20;9.70;99.90
46231;DHT22;31949;51.404;-0.038;2024-02-21T06:07:47;9.60;99.90
46231;DHT22;31949;51.404;-0.038;2024-02-21T06:10:14;9.60;99.90
46231;DHT22;31949;51.404;-0.038;2024-02-21T06:12:42;9.70;99.90
46231;DHT22;31949;51.404;-0.038;2024-02-21T06:15:09;9.80;99.90
46231;DHT22;31949;51.404;-0.038;2024-02-21T06:17:36;9.70;99.90
46231;DHT22;31949;51.404;-0.038;2024-02-21T06:20:04;9.70;99.90
46231;DHT22;31949;51.404;-0.038;2024-02-21T06:22:32;9.70;99.90
46231;DHT22;31949;51.404;-0.038;2024-02-21T06:24:59;9.70;99.90
46231;DHT22;31949;51.404;-0.038;2024-02-21T06:27:26;9.60;99.90
46231;DHT22;31949;51.404;-0.038;2024-02-21T06:29:54;9.60;99.90
46231;DHT22;31949;51.404;-0.038;2024-02-21T06:32:21;9.50;99.90
46231;DHT22;31949;51.404;-0.038;2024-02-21T06:34:48;9.50;99.90
46231;DHT22;31949;51.404;-0.038;2024-02-21T06:37:15;9.50;99.90
46231;DHT22;31949;51.404;-0.038;2024-02-21T06:39:43;9.50;99.90
46231;DHT22;31949;51.404;-0.038;2024-02-21T06:42:10;9.50;99.90
46231;DHT22;31949;51.404;-0.038;2024-02-21T06:44:38;9.60;99.90
46231;DHT22;31949;51.404;-0.038;2024-02-21T06:47:07;9.50;99.90
46231;DHT22;31949;51.404;-0.038;2024-02-21T06:49:35;9.60;99.90
46231;DHT22;31949;51.404;-0.038;2024-02-21T06:52:06;9.50;99.90
46231;DHT22;31949;51.404;-0.038;2024-02-21T06:54:33;9.50;99.90
46231;DHT22;31949;51.404;-0.038;2024-02-21T06:57:00;9.50;99.90
46231;DHT22;31949;51.404;-0.038;2024-02-21T06:59:27;9.50;99.90
46231;DHT22;31949;51.404;-0.038;2024-02-21T07:01:55;9.50;99.90
46231;DHT22;31949;51.404;-0.038;2024-02-21T07:04:23;9.60;99.90
46231;DHT22;31949;51.404;-0.038;2024-02-21T07:06:50;9.50;99.90
46231;DHT22;31949;51.404;-0.038;2024-02-21T07:09:18;9.60;99.90
46231;DHT22;31949;51.404;-0.038;2024-02-21T07:11:46;9.60;99.90
46231;DHT22;31949;51.404;-0.038;2024-02-21T07:14:14;9.50;99.90
46231;DHT22;31949;51.404;-0.038;2024-02-21T07:16:42;9.60;99.90
46231;DHT22;31949;51.404;-0.038;2024-02-21T07:19:09;9.50;99.90
46231;DHT22;31949;51.404;-0.038;2024-02-21T07:21:37;9.50;99.90
46231;DHT22;31949;51.404;-0.038;2024-02-21T07:24:05;9.50;99.90
46231;DHT22;31949;51.404;-0.038;2024-02-21T07:26:32;9.60;99.90
46231;DHT22;31949;51.404;-0.038;2024-02-21T07:28:59;9.70;99.90
46231;DHT22;31949;51.404;-0.038;2024-02-21T07:31:27;9.70;99.90
46231;DHT22;31949;51.404;-0.038;2024-02-21T07:33:54;9.60;99.90
46231;DHT22;31949;51.404;-0.038;2024-02-21T07:36:29;9.60;99.90
46231;DHT22;31949;51.404;-0.038;2024-02-21T07:38:57;9.60;99.90
46231;DHT22;31949;51.404;-0.038;2024-02-21T07:41:27;9.70;99.90
46231;DHT22;31949;51.404;-0.038;2024-02-21T07:43:58;9.70;99.90
46231;DHT22;31949;51.404;-0.038;2024-02-21T07:46:25;9.70;99.90
46231;DHT22;31949;51.404;-0.038;2024-02-21T07:48:53;9.80;99.90
46231;DHT22;31949;51.404;-0.038;2024-02-21T07:51:20;9.70;99.90
46231;DHT22;31949;51.404;-0.038;2024-02-21T07:53:47;9.70;99.90
46231;DHT22;31949;51.404;-0.038;2024-02-21T07:56:15;9.70;99.90
46231;DHT22;31949;51.404;-0.038;2024-02-21T07:58:43;9.70;99.90
46231;DHT22;31949;51.404;-0.038;2024-02-21T08:01:10;9.70;99.90
46231;DHT22;31949;51.404;-0.038;2024-02-21T08:03:38;9.70;99.90
46231;DHT22;31949;51.404;-0.038;2024-02-21T08:06:05;9.70;99.90
46231;DHT22;31949;51.404;-0.038;2024-02-21T08:08:32;9.80;99.90
46231;DHT22;31949;51.404;-0.038;2024-02-21T08:11:00;9.80;99.90
46231;DHT22;31949;51.404;-0.038;2024-02-21T08:13:27;9.80;99.90
46231;DHT22;31949;51.404;-0.038;2024-02-21T08:15:56;9.80;99.90
46231;DHT22;31949;51.404;-0.038;2024-02-21T08:18:24;9.80;99.90
46231;DHT22;31949;51.404;-0.038;2024-02-21T08:20:51;9.90;99.90
46231;DHT22;31949;51.404;-0.038;2024-02-21T08:23:19;9.90;99.90
46231;DHT22;31949;51.404;-0.038;2024-02-21T08:25:46;9.90;99.90
46231;DHT22;31949;51.404;-0.038;2024-02-21T08:28:14;9.90;99.90
46231;DHT22;31949;51.404;-0.038;2024-02-21T08:30:41;9.90;99.90
46231;DHT22;31949;51.404;-0.038;2024-02-21T08:33:15;9.90;99.90
46231;DHT22;31949;51.404;-0.038;2024-02-21T08:35:44;9.90;99.90
46231;DHT22;31949;51.404;-0.038;2024-02-21T08:38:11;10.00;99.90
46231;DHT22;31949;51.404;-0.038;2024-02-21T08:40:38;10.10;99.90
46231;DHT22;31949;51.404;-0.038;2024-02-21T08:43:06;10.10;99.90
46231;DHT22;31949;51.404;-0.038;2024-02-21T08:45:33;10.00;99.90
46231;DHT22;31949;51.404;-0.038;2024-02-21T08:48:00;10.00;99.90
46231;DHT22;31949;51.404;-0.038;2024-02-21T08:50:28;10.00;99.90
46231;DHT22;31949;51.404;-0.038;2024-02-21T08:52:56;10.10;99.90
46231;DHT22;31949;51.404;-0.038;2024-02-21T08:55:24;10.00;99.90
46231;DHT22;31949;51.404;-0.038;2024-02-21T08:57:51;10.10;99.90
46231;DHT22;31949;51.404;-0.038;2024-02-21T09:00:19;10.10;99.90
46231;DHT22;31949;51.404;-0.038;2024-02-21T09:02:51;10.10;99.90
46231;DHT22;31949;51.404;-0.038;2024-02-21T09:05:18;10.10;99.90
46231;DHT22;31949;51.404;-0.038;2024-02-21T09:07:46;10.10;99.90
46231;DHT22;31949;51.404;-0.038;2024-02-21T09:10:14;10.10;99.90
46231;DHT22;31949;51.404;-0.038;2024-02-21T09:12:41;10.20;99.90
46231;DHT22;31949;51.404;-0.038;2024-02-21T09:15:08;10.20;99.90
46231;DHT22;31949;51.404;-0.038;2024-02-21T09:17:36;10.20;99.90
46231;DHT22;31949;51.404;-0.038;2024-02-21T09:20:04;10.20;99.90
46231;DHT22;31949;51.404;-0.038;2024-02-21T09:22:31;10.10;99.90
46231;DHT22;31949;51.404;-0.038;2024-02-21T09:25:01;10.10;99.90
46231;DHT22;31949;51.404;-0.038;2024-02-21T09:27:30;10.20;99.90
46231;DHT22;31949;51.404;-0.038;2024-02-21T09:29:58;10.20;99.90
46231;DHT22;31949;51.404;-0.038;2024-02-21T09:32:25;10.20;99.90
46231;DHT22;31949;51.404;-0.038;2024-02-21T09:34:53;10.20;99.90
46231;DHT22;31949;51.404;-0.038;2024-02-21T09:37:25;10.20;99.90
46231;DHT22;31949;51.404;-0.038;2024-02-21T09:39:53;10.20;99.90
46231;DHT22;31949;51.404;-0.038;2024-02-21T09:42:21;10.30;99.90
46231;DHT22;31949;51.404;-0.038;2024-02-21T09:44:50;10.30;99.90
46231;DHT22;31949;51.404;-0.038;2024-02-21T09:47:24;10.20;99.90
46231;DHT22;31949;51.404;-0.038;2024-02-21T09:49:55;10.30;99.90
46231;DHT22;31949;51.404;-0.038;2024-02-21T09:52:25;10.30;99.90
46231;DHT22;31949;51.404;-0.038;2024-02-21T09:54:54;10.30;99.90
46231;DHT22;31949;51.404;-0.038;2024-02-21T09:57:22;10.30;99.90
46231;DHT22;31949;51.404;-0.038;2024-02-21T09:59:50;10.30;99.90
46231;DHT22;31949;51.404;-0.038;2024-02-21T10:02:18;10.30;99.90
46231;DHT22;31949;51.404;-0.038;2024-02-21T10:04:45;10.30;99.90
46231;DHT22;31949;51.404;-0.038;2024-02-21T10:07:13;10.30;99.90
46231;DHT22;31949;51.404;-0.038;2024-02-21T10:09:40;10.30;99.90
46231;DHT22;31949;51.404;-0.038;2024-02-21T10:12:10;10.30;99.90
46231;DHT22;31949;51.404;-0.038;2024-02-21T10:14:40;10.30;99.90
46231;DHT22;31949;51.404;-0.038;2024-02-21T10:17:08;10.30;99.90
46231;DHT22;31949;51.404;-0.038;2024-02-21T10:19:38;10.30;99.90
46231;DHT22;31949;51.404;-0.038;2024-02-21T10:22:08;10.30;99.90
46231;DHT22;31949;51.404;-0.038;2024-02-21T10:24:37;10.30;99.90
46231;DHT22;31949;51.404;-0.038;2024-02-21T10:27:07;10.30;99.90
46231;DHT22;31949;51.404;-0.038;2024-02-21T10:29:35;10.20;99.90
46231;DHT22;31949;51.404;-0.038;2024-02-21T10:32:11;10.20;99.90
46231;DHT22;31949;51.404;-0.038;2024-02-21T10:34:41;10.30;99.90
46231;DHT22;31949;51.404;-0.038;2024-02-21T10:37:10;10.30;99.90
46231;DHT22;31949;51.404;-0.038;2024-02-21T10:39:41;10.30;99.90
46231;DHT22;31949;51.404;-0.038;2024-02-21T10:42:11;10.30;99.90
46231;DHT22;31949;51.404;-0.038;2024-02-21T10:44:40;10.20;99.90
46231;DHT22;31949;51.404;-0.038;2024-02-21T10:47:10;10.20;99.90
46231;DHT22;31949;51.404;-0.038;2024-02-21T10:49:40;10.20;99.90
46231;DHT22;31949;51.404;-0.038;2024-02-21T10:54:57;10.30;99.90
46231;DHT22;31949;51.404;-0.038;2024-02-21T10:57:26;10.20;99.90
46231;DHT22;31949;51.404;-0.038;2024-02-21T10:59:56;10.40;99.90
46231;DHT22;31949;51.404;-0.038;2024-02-21T11:02:26;10.30;99.90
46231;DHT22;31949;51.404;-0.038;2024-02-21T11:04:56;10.30;99.90
46231;DHT22;31949;51.404;-0.038;2024-02-21T11:07:24;10.40;99.90
46231;DHT22;31949;51.404;-0.038;2024-02-21T11:09:53;10.40;99.90
46231;DHT22;31949;51.404;-0.038;2024-02-21T11:12:23;10.40;99.90
46231;DHT22;31949;51.404;-0.038;2024-02-21T11:14:50;10.40;99.90
46231;DHT22;31949;51.404;-0.038;2024-02-21T11:17:19;10.40;99.90
46231;DHT22;31949;51.404;-0.038;2024-02-21T11:19:48;10.40;99.90
46231;DHT22;31949;51.404;-0.038;2024-02-21T11:22:19;10.50;99.90
46231;DHT22;31949;51.404;-0.038;2024-02-21T11:24:50;10.50;99.90
46231;DHT22;31949;51.404;-0.038;2024-02-21T11:27:22;10.50;99.90
46231;DHT22;31949;51.404;-0.038;2024-02-21T11:29:58;10.50;99.90
46231;DHT22;31949;51.404;-0.038;2024-02-21T11:32:26;10.50;99.90
46231;DHT22;31949;51.404;-0.038;2024-02-21T11:35:03;10.60;99.90
46231;DHT22;31949;51.404;-0.038;2024-02-21T11:37:35;10.50;99.90
46231;DHT22;31949;51.404;-0.038;2024-02-21T11:40:07;10.60;99.90
46231;DHT22;31949;51.404;-0.038;2024-02-21T11:42:39;10.60;99.90
46231;DHT22;31949;51.404;-0.038;2024-02-21T11:45:07;10.70;99.90
46231;DHT22;31949;51.404;-0.038;2024-02-21T11:47:36;10.80;99.90
46231;DHT22;31949;51.404;-0.038;2024-02-21T11:50:10;10.70;99.90
46231;DHT22;31949;51.404;-0.038;2024-02-21T11:52:38;10.70;99.90
46231;DHT22;31949;51.404;-0.038;2024-02-21T11:55:06;10.70;99.90
46231;DHT22;31949;51.404;-0.038;2024-02-21T11:57:37;10.70;99.90
46231;DHT22;31949;51.404;-0.038;2024-02-21T12:00:17;10.70;99.90
46231;DHT22;31949;51.404;-0.038;2024-02-21T12:02:47;10.70;99.90
46231;DHT22;31949;51.404;-0.038;2024-02-21T12:05:15;10.60;99.90
46231;DHT22;31949;51.404;-0.038;2024-02-21T12:07:43;10.60;99.90
46231;DHT22;31949;51.404;-0.038;2024-02-21T12:10:11;10.60;99.90
46231;DHT22;31949;51.404;-0.038;2024-02-21T12:12:39;10.60;99.90
46231;DHT22;31949;51.404;-0.038;2024-02-21T12:15:07;10.70;99.90
46231;DHT22;31949;51.404;-0.038;2024-02-21T12:17:36;10.70;99.90
46231;DHT22;31949;51.404;-0.038;2024-02-21T12:20:04;10.70;99.90
46231;DHT22;31949;51.404;-0.038;2024-02-21T12:22:38;10.70;99.90
46231;DHT22;31949;51.404;-0.038;2024-02-21T12:25:19;10.70;99.90
46231;DHT22;31949;51.404;-0.038;2024-02-21T12:27:47;10.70;99.90
46231;DHT22;31949;51.404;-0.038;2024-02-21T12:30:16;10.70;99.90
46231;DHT22;31949;51.404;-0.038;2024-02-21T12:32:44;10.80;99.90
46231;DHT22;31949;51.404;-0.038;2024-02-21T12:35:11;10.90;99.90
46231;DHT22;31949;51.404;-0.038;2024-02-21T12:37:39;10.90;99.90
46231;DHT22;31949;51.404;-0.038;2024-02-21T12:40:08;11.00;99.90
46231;DHT22;31949;51.404;-0.038;2024-02-21T12:42:35;11.10;99.90
46231;DHT22;31949;51.404;-0.038;2024-02-21T12:45:03;11.00;99.90
46231;DHT22;31949;51.404;-0.038;2024-02-21T12:47:31;11.00;99.90
46231;DHT22;31949;51.404;-0.038;2024-02-21T12:49:58;11.00;99.90
46231;DHT22;31949;51.404;-0.038;2024-02-21T12:52:25;11.20;99.90
46231;DHT22;31949;51.404;-0.038;2024-02-21T12:54:53;11.10;99.90
46231;DHT22;31949;51.404;-0.038;2024-02-21T12:57:24;11.10;99.90
46231;DHT22;31949;51.404;-0.038;2024-02-21T12:59:54;11.10;99.90
46231;DHT22;31949;51.404;-0.038;2024-02-21T13:02:21;11.10;99.90
46231;DHT22;31949;51.404;-0.038;2024-02-21T13:04:49;11.20;99.90
46231;DHT22;31949;51.404;-0.038;2024-02-21T13:07:16;11.30;99.90
46231;DHT22;31949;51.404;-0.038;2024-02-21T13:09:43;11.40;99.90
46231;DHT22;31949;51.404;-0.038;2024-02-21T13:12:11;11.30;99.90
46231;DHT22;31949;51.404;-0.038;2024-02-21T13:14:39;11.40;99.90
46231;DHT22;31949;51.404;-0.038;2024-02-21T13:17:06;11.40;99.90
46231;DHT22;31949;51.404;-0.038;2024-02-21T13:19:34;11.40;99.90
46231;DHT22;31949;51.404;-0.038;2024-02-21T13:22:02;11.30;99.90
46231;DHT22;31949;51.404;-0.038;2024-02-21T13:24:30;11.40;99.90
46231;DHT22;31949;51.404;-0.038;2024-02-21T13:26:58;11.40;99.90
46231;DHT22;31949;51.404;-0.038;2024-02-21T13:29:26;11.30;99.90
46231;DHT22;31949;51.404;-0.038;2024-02-21T13:31:54;11.40;99.90
46231;DHT22;31949;51.404;-0.038;2024-02-21T13:34:21;11.30;99.90
46231;DHT22;31949;51.404;-0.038;2024-02-21T13:36:48;11.30;99.90
46231;DHT22;31949;51.404;-0.038;2024-02-21T13:39:17;11.40;99.90
46231;DHT22;31949;51.404;-0.038;2024-02-21T13:41:47;11.40;99.90
46231;DHT22;31949;51.404;-0.038;2024-02-21T13:44:15;11.40;99.90
46231;DHT22;31949;51.404;-0.038;2024-02-21T13:46:42;11.50;99.90
46231;DHT22;31949;51.404;-0.038;2024-02-21T13:49:10;11.40;99.90
46231;DHT22;31949;51.404;-0.038;2024-02-21T13:51:37;11.50;99.90
46231;DHT22;31949;51.404;-0.038;2024-02-21T13:54:05;11.60;99.90
46231;DHT22;31949;51.404;-0.038;2024-02-21T13:56:32;11.50;99.90
46231;DHT22;31949;51.404;-0.038;2024-02-21T13:59:00;11.50;99.90
46231;DHT22;31949;51.404;-0.038;2024-02-21T14:01:27;11.50;99.90
46231;DHT22;31949;51.404;-0.038;2024-02-21T14:03:55;11.40;99.90
46231;DHT22;31949;51.404;-0.038;2024-02-21T14:06:22;11.40;99.90
46231;DHT22;31949;51.404;-0.038;2024-02-21T14:08:50;11.40;99.90
46231;DHT22;31949;51.404;-0.038;2024-02-21T14:11:17;11.30;99.90
46231;DHT22;31949;51.404;-0.038;2024-02-21T14:13:45;11.30;99.90
46231;DHT22;31949;51.404;-0.038;2024-02-21T14:16:12;11.30;99.90
46231;DHT22;31949;51.404;-0.038;2024-02-21T14:18:42;11.40;99.90
46231;DHT22;31949;51.404;-0.038;2024-02-21T14:21:11;11.30;99.90
46231;DHT22;31949;51.404;-0.038;2024-02-21T14:23:38;11.40;99.90
46231;DHT22;31949;51.404;-0.038;2024-02-21T14:26:06;11.30;99.90
46231;DHT22;31949;51.404;-0.038;2024-02-21T14:28:33;11.40;99.90
46231;DHT22;31949;51.404;-0.038;2024-02-21T14:31:01;11.30;99.90
46231;DHT22;31949;51.404;-0.038;2024-02-21T14:33:28;11.30;99.90
46231;DHT22;31949;51.404;-0.038;2024-02-21T14:35:57;11.30;99.90
46231;DHT22;31949;51.404;-0.038;2024-02-21T14:38:24;11.40;99.90
46231;DHT22;31949;51.404;-0.038;2024-02-21T14:40:51;11.30;99.90
46231;DHT22;31949;51.404;-0.038;2024-02-21T14:43:19;11.30;99.90
46231;DHT22;31949;51.404;-0.038;2024-02-21T14:45:49;11.30;99.90
46231;DHT22;31949;51.404;-0.038;2024-02-21T14:48:16;11.40;99.90
46231;DHT22;31949;51.404;-0.038;2024-02-21T14:50:44;11.30;99.90
46231;DHT22;31949;51.404;-0.038;2024-02-21T14:53:11;11.30;99.90
46231;DHT22;31949;51.404;-0.038;2024-02-21T14:55:39;11.20;99.90
46231;DHT22;31949;51.404;-0.038;2024-02-21T14:58:09;11.40;99.90
46231;DHT22;31949;51.404;-0.038;2024-02-21T15:00:38;11.40;99.90
46231;DHT22;31949;51.404;-0.038;2024-02-21T15:03:07;11.40;99.90
46231;DHT22;31949;51.404;-0.038;2024-02-21T15:05:34;11.40;99.90
46231;DHT22;31949;51.404;-0.038;2024-02-21T15:08:02;11.40;99.90
46231;DHT22;31949;51.404;-0.038;2024-02-21T15:10:30;11.30;99.90
46231;DHT22;31949;51.404;-0.038;2024-02-21T15:12:57;11.40;99.90
46231;DHT22;31949;51.404;-0.038;2024-02-21T15:15:25;11.40;99.90
46231;DHT22;31949;51.404;-0.038;2024-02-21T15:17:52;11.40;99.90
46231;DHT22;31949;51.404;-0.038;2024-02-21T15:20:19;11.40;99.90
46231;DHT22;31949;51.404;-0.038;2024-02-21T16:47:54;11.50;99.90
46231;DHT22;31949;51.404;-0.038;2024-02-21T16:50:22;11.60;99.90
46231;DHT22;31949;51.404;-0.038;2024-02-21T16:52:50;11.70;99.90